sensor_id;sensor_type;location;lat;lon;timestamp;P1;durP1;ratioP1;P2;durP2;ratioP2
351;SDS011;164;50.784;6.496;2024-03-07T00:00:27;21.08;;;15.63;;
351;SDS011;164;50.784;6.496;2024-03-07T00:02:54;23.65;;;14.95;;
351;SDS011;164;50.784;6.496;2024-03-07T00:05:21;19.67;;;15.77;;
351;SDS011;164;50.784;6.496;2024-03-07T00:07:50;21.63;;;14.82;;
351;SDS011;164;50.784;6.496;2024-03-07T00:10:18;20.08;;;15.07;;
351;SDS011;164;50.784;6.496;2024-03-07T00:12:47;19.40;;;13.70;;
351;SDS011;164;50.784;6.496;2024-03-07T00:15:15;24.55;;;17.45;;
351;SDS011;164;50.784;6.496;2024-03-07T00:17:42;20.45;;;14.35;;
351;SDS011;164;50.784;6.496;2024-03-07T00:20:10;28.60;;;16.10;;
351;SDS011;164;50.784;6.496;2024-03-07T00:22:40;25.30;;;15.57;;
351;SDS011;164;50.784;6.496;2024-03-07T00:25:07;25.45;;;16.23;;
351;SDS011;164;50.784;6.496;2024-03-07T00:27:36;20.67;;;14.40;;
351;SDS011;164;50.784;6.496;2024-03-07T00:30:07;23.15;;;16.75;;
351;SDS011;164;50.784;6.496;2024-03-07T00:32:34;21.60;;;14.88;;
351;SDS011;164;50.784;6.496;2024-03-07T00:35:04;20.65;;;14.02;;
351;SDS011;164;50.784;6.496;2024-03-07T00:37:33;26.77;;;15.75;;
351;SDS011;164;50.784;6.496;2024-03-07T00:40:00;25.45;;;16.02;;
351;SDS011;164;50.784;6.496;2024-03-07T00:42:28;26.27;;;18.40;;
351;SDS011;164;50.784;6.496;2024-03-07T00:44:55;26.90;;;18.77;;
351;SDS011;164;50.784;6.496;2024-03-07T00:47:24;29.10;;;17.08;;
351;SDS011;164;50.784;6.496;2024-03-07T00:49:51;25.05;;;15.80;;
351;SDS011;164;50.784;6.496;2024-03-07T00:52:19;24.05;;;16.58;;
351;SDS011;164;50.784;6.496;2024-03-07T00:54:46;22.95;;;16.80;;
351;SDS011;164;50.784;6.496;2024-03-07T00:57:14;28.20;;;16.90;;
351;SDS011;164;50.784;6.496;2024-03-07T00:59:41;24.90;;;16.58;;
351;SDS011;164;50.784;6.496;2024-03-07T01:02:08;27.02;;;17.80;;
351;SDS011;164;50.784;6.496;2024-03-07T01:04:37;25.80;;;16.00;;
351;SDS011;164;50.784;6.496;2024-03-07T01:07:04;32.35;;;17.65;;
351;SDS011;164;50.784;6.496;2024-03-07T01:09:31;27.10;;;19.33;;
351;SDS011;164;50.784;6.496;2024-03-07T01:12:00;24.58;;;17.73;;
351;SDS011;164;50.784;6.496;2024-03-07T01:14:29;32.03;;;18.17;;
351;SDS011;164;50.784;6.496;2024-03-07T01:16:57;23.80;;;16.10;;
351;SDS011;164;50.784;6.496;2024-03-07T01:19:24;28.20;;;17.33;;
351;SDS011;164;50.784;6.496;2024-03-07T01:21:53;27.05;;;18.42;;
351;SDS011;164;50.784;6.496;2024-03-07T01:24:20;24.63;;;17.02;;
351;SDS011;164;50.784;6.496;2024-03-07T01:26:48;27.90;;;17.48;;
351;SDS011;164;50.784;6.496;2024-03-07T01:29:15;29.70;;;17.42;;
351;SDS011;164;50.784;6.496;2024-03-07T01:31:42;28.63;;;19.00;;
351;SDS011;164;50.784;6.496;2024-03-07T01:34:09;28.13;;;17.88;;
351;SDS011;164;50.784;6.496;2024-03-07T01:36:37;26.52;;;16.35;;
351;SDS011;164;50.784;6.496;2024-03-07T01:39:05;28.00;;;17.58;;
351;SDS011;164;50.784;6.496;2024-03-07T01:41:32;31.95;;;18.65;;
351;SDS011;164;50.784;6.496;2024-03-07T01:44:00;26.85;;;16.00;;
351;SDS011;164;50.784;6.496;2024-03-07T01:46:28;28.60;;;19.48;;
351;SDS011;164;50.784;6.496;2024-03-07T01:48:55;22.55;;;15.75;;
351;SDS011;164;50.784;6.496;2024-03-07T01:51:23;30.20;;;19.65;;
351;SDS011;164;50.784;6.496;2024-03-07T01:53:50;22.08;;;16.83;;
351;SDS011;164;50.784;6.496;2024-03-07T01:56:21;25.15;;;16.88;;
351;SDS011;164;50.784;6.496;2024-03-07T01:58:48;30.10;;;19.30;;
351;SDS011;164;50.784;6.496;2024-03-07T02:01:16;27.52;;;18.50;;
351;SDS011;164;50.784;6.496;2024-03-07T02:03:43;28.67;;;18.00;;
351;SDS011;164;50.784;6.496;2024-03-07T02:06:11;26.23;;;17.55;;
351;SDS011;164;50.784;6.496;2024-03-07T02:08:38;32.65;;;17.63;;
351;SDS011;164;50.784;6.496;2024-03-07T02:11:05;26.27;;;16.20;;
351;SDS011;164;50.784;6.496;2024-03-07T02:13:36;29.63;;;17.90;;
351;SDS011;164;50.784;6.496;2024-03-07T02:16:03;30.02;;;18.10;;
351;SDS011;164;50.784;6.496;2024-03-07T02:18:30;26.83;;;19.50;;
351;SDS011;164;50.784;6.496;2024-03-07T02:20:59;31.50;;;19.23;;
351;SDS011;164;50.784;6.496;2024-03-07T02:23:26;27.55;;;17.92;;
351;SDS011;164;50.784;6.496;2024-03-07T02:25:53;26.63;;;17.35;;
351;SDS011;164;50.784;6.496;2024-03-07T02:28:21;31.33;;;20.08;;
351;SDS011;164;50.784;6.496;2024-03-07T02:30:48;24.83;;;17.27;;
351;SDS011;164;50.784;6.496;2024-03-07T02:33:15;29.40;;;18.58;;
351;SDS011;164;50.784;6.496;2024-03-07T02:35:43;30.75;;;17.38;;
351;SDS011;164;50.784;6.496;2024-03-07T02:38:12;26.80;;;17.92;;
351;SDS011;164;50.784;6.496;2024-03-07T02:40:39;26.30;;;17.15;;
351;SDS011;164;50.784;6.496;2024-03-07T02:43:06;28.88;;;18.50;;
351;SDS011;164;50.784;6.496;2024-03-07T02:45:34;25.92;;;16.88;;
351;SDS011;164;50.784;6.496;2024-03-07T02:48:01;26.80;;;17.38;;
351;SDS011;164;50.784;6.496;2024-03-07T02:50:29;31.63;;;17.15;;
351;SDS011;164;50.784;6.496;2024-03-07T02:52:57;26.60;;;16.67;;
351;SDS011;164;50.784;6.496;2024-03-07T02:55:25;29.42;;;18.10;;
351;SDS011;164;50.784;6.496;2024-03-07T02:57:52;27.75;;;18.30;;
351;SDS011;164;50.784;6.496;2024-03-07T03:00:21;29.40;;;17.75;;
351;SDS011;164;50.784;6.496;2024-03-07T03:02:51;28.60;;;18.58;;
351;SDS011;164;50.784;6.496;2024-03-07T03:05:19;30.58;;;16.77;;
351;SDS011;164;50.784;6.496;2024-03-07T03:07:46;27.90;;;16.13;;
351;SDS011;164;50.784;6.496;2024-03-07T03:10:23;25.58;;;17.50;;
351;SDS011;164;50.784;6.496;2024-03-07T03:12:52;26.23;;;16.30;;
351;SDS011;164;50.784;6.496;2024-03-07T03:15:20;26.58;;;18.08;;
351;SDS011;164;50.784;6.496;2024-03-07T03:17:47;24.25;;;16.88;;
351;SDS011;164;50.784;6.496;2024-03-07T03:20:15;26.50;;;16.95;;
351;SDS011;164;50.784;6.496;2024-03-07T03:22:51;31.73;;;18.35;;
351;SDS011;164;50.784;6.496;2024-03-07T03:25:19;28.67;;;18.98;;
351;SDS011;164;50.784;6.496;2024-03-07T03:27:48;29.27;;;18.00;;
351;SDS011;164;50.784;6.496;2024-03-07T03:30:17;27.48;;;17.00;;
351;SDS011;164;50.784;6.496;2024-03-07T03:32:45;30.38;;;17.90;;
351;SDS011;164;50.784;6.496;2024-03-07T03:35:13;25.58;;;15.30;;
351;SDS011;164;50.784;6.496;2024-03-07T03:37:40;27.88;;;16.92;;
351;SDS011;164;50.784;6.496;2024-03-07T03:40:08;25.73;;;17.80;;
351;SDS011;164;50.784;6.496;2024-03-07T03:42:36;28.98;;;18.27;;
351;SDS011;164;50.784;6.496;2024-03-07T03:45:03;27.65;;;18.58;;
351;SDS011;164;50.784;6.496;2024-03-07T03:47:34;32.75;;;21.05;;
351;SDS011;164;50.784;6.496;2024-03-07T03:50:02;27.75;;;16.20;;
351;SDS011;164;50.784;6.496;2024-03-07T03:52:30;30.75;;;18.92;;
351;SDS011;164;50.784;6.496;2024-03-07T03:54:57;32.33;;;17.02;;
351;SDS011;164;50.784;6.496;2024-03-07T03:57:25;28.10;;;18.10;;
351;SDS011;164;50.784;6.496;2024-03-07T03:59:52;25.45;;;17.48;;
351;SDS011;164;50.784;6.496;2024-03-07T04:02:20;29.13;;;17.15;;
351;SDS011;164;50.784;6.496;2024-03-07T04:04:49;35.03;;;21.17;;
351;SDS011;164;50.784;6.496;2024-03-07T04:07:17;27.38;;;19.48;;
351;SDS011;164;50.784;6.496;2024-03-07T04:11:26;23.27;;;17.58;;
351;SDS011;164;50.784;6.496;2024-03-07T04:13:54;29.45;;;19.98;;
351;SDS011;164;50.784;6.496;2024-03-07T04:16:21;25.33;;;18.38;;
351;SDS011;164;50.784;6.496;2024-03-07T04:18:48;25.35;;;16.20;;
351;SDS011;164;50.784;6.496;2024-03-07T04:21:16;26.95;;;18.35;;
351;SDS011;164;50.784;6.496;2024-03-07T04:23:43;24.38;;;17.08;;
351;SDS011;164;50.784;6.496;2024-03-07T04:26:11;33.13;;;19.35;;
351;SDS011;164;50.784;6.496;2024-03-07T04:28:40;28.20;;;18.38;;
351;SDS011;164;50.784;6.496;2024-03-07T04:31:08;25.00;;;16.15;;
351;SDS011;164;50.784;6.496;2024-03-07T04:33:35;30.13;;;19.70;;
351;SDS011;164;50.784;6.496;2024-03-07T04:36:03;28.95;;;15.35;;
351;SDS011;164;50.784;6.496;2024-03-07T04:38:32;29.23;;;16.75;;
351;SDS011;164;50.784;6.496;2024-03-07T04:40:59;32.08;;;18.90;;
351;SDS011;164;50.784;6.496;2024-03-07T04:43:27;24.15;;;15.57;;
351;SDS011;164;50.784;6.496;2024-03-07T04:46:05;26.60;;;16.48;;
351;SDS011;164;50.784;6.496;2024-03-07T04:48:32;22.70;;;15.20;;
351;SDS011;164;50.784;6.496;2024-03-07T04:50:59;21.40;;;15.45;;
351;SDS011;164;50.784;6.496;2024-03-07T04:53:26;26.65;;;17.17;;
351;SDS011;164;50.784;6.496;2024-03-07T04:55:53;27.33;;;16.50;;
351;SDS011;164;50.784;6.496;2024-03-07T04:58:21;28.13;;;14.45;;
351;SDS011;164;50.784;6.496;2024-03-07T05:00:48;33.08;;;17.67;;
351;SDS011;164;50.784;6.496;2024-03-07T05:03:17;25.45;;;16.20;;
351;SDS011;164;50.784;6.496;2024-03-07T05:05:45;26.15;;;17.50;;
351;SDS011;164;50.784;6.496;2024-03-07T05:08:14;25.55;;;15.60;;
351;SDS011;164;50.784;6.496;2024-03-07T05:14:30;31.08;;;16.88;;
351;SDS011;164;50.784;6.496;2024-03-07T05:17:37;29.30;;;18.02;;
351;SDS011;164;50.784;6.496;2024-03-07T05:26:31;28.23;;;16.73;;
351;SDS011;164;50.784;6.496;2024-03-07T05:29:07;24.08;;;15.90;;
351;SDS011;164;50.784;6.496;2024-03-07T05:32:17;27.42;;;16.70;;
351;SDS011;164;50.784;6.496;2024-03-07T05:37:43;23.33;;;16.20;;
351;SDS011;164;50.784;6.496;2024-03-07T05:40:27;28.27;;;17.33;;
351;SDS011;164;50.784;6.496;2024-03-07T05:46:12;21.20;;;14.65;;
351;SDS011;164;50.784;6.496;2024-03-07T05:48:54;24.90;;;15.90;;
351;SDS011;164;50.784;6.496;2024-03-07T05:51:39;27.35;;;17.60;;
351;SDS011;164;50.784;6.496;2024-03-07T05:54:23;28.92;;;18.38;;
351;SDS011;164;50.784;6.496;2024-03-07T05:57:13;23.88;;;16.35;;
351;SDS011;164;50.784;6.496;2024-03-07T05:59:42;27.35;;;16.45;;
351;SDS011;164;50.784;6.496;2024-03-07T06:02:35;29.27;;;17.38;;
351;SDS011;164;50.784;6.496;2024-03-07T06:08:14;26.10;;;15.73;;
351;SDS011;164;50.784;6.496;2024-03-07T06:10:50;23.67;;;14.90;;
351;SDS011;164;50.784;6.496;2024-03-07T06:13:18;29.58;;;17.25;;
351;SDS011;164;50.784;6.496;2024-03-07T06:15:45;24.05;;;15.80;;
351;SDS011;164;50.784;6.496;2024-03-07T06:18:15;25.75;;;16.25;;
351;SDS011;164;50.784;6.496;2024-03-07T06:20:43;27.50;;;17.95;;
351;SDS011;164;50.784;6.496;2024-03-07T06:23:10;29.98;;;18.40;;
351;SDS011;164;50.784;6.496;2024-03-07T06:25:38;26.65;;;16.40;;
351;SDS011;164;50.784;6.496;2024-03-07T06:28:12;26.65;;;18.98;;
351;SDS011;164;50.784;6.496;2024-03-07T06:30:40;30.85;;;16.58;;
351;SDS011;164;50.784;6.496;2024-03-07T06:33:08;22.17;;;15.75;;
351;SDS011;164;50.784;6.496;2024-03-07T06:35:36;21.67;;;13.50;;
351;SDS011;164;50.784;6.496;2024-03-07T06:38:05;21.30;;;15.85;;
351;SDS011;164;50.784;6.496;2024-03-07T06:40:33;26.10;;;15.95;;
351;SDS011;164;50.784;6.496;2024-03-07T06:43:00;27.30;;;17.85;;
351;SDS011;164;50.784;6.496;2024-03-07T06:45:29;21.45;;;15.00;;
351;SDS011;164;50.784;6.496;2024-03-07T06:47:56;21.98;;;15.05;;
351;SDS011;164;50.784;6.496;2024-03-07T06:50:23;31.58;;;17.20;;
351;SDS011;164;50.784;6.496;2024-03-07T06:52:52;23.70;;;16.33;;
351;SDS011;164;50.784;6.496;2024-03-07T06:55:19;29.85;;;17.58;;
351;SDS011;164;50.784;6.496;2024-03-07T06:57:47;23.23;;;16.17;;
351;SDS011;164;50.784;6.496;2024-03-07T07:00:15;25.42;;;14.98;;
351;SDS011;164;50.784;6.496;2024-03-07T07:02:48;24.60;;;14.73;;
351;SDS011;164;50.784;6.496;2024-03-07T07:05:15;23.65;;;15.80;;
351;SDS011;164;50.784;6.496;2024-03-07T07:07:43;21.90;;;15.52;;
351;SDS011;164;50.784;6.496;2024-03-07T07:10:12;28.15;;;16.42;;
351;SDS011;164;50.784;6.496;2024-03-07T07:12:45;22.08;;;14.15;;
351;SDS011;164;50.784;6.496;2024-03-07T07:15:14;22.23;;;13.70;;
351;SDS011;164;50.784;6.496;2024-03-07T07:17:43;23.88;;;15.43;;
351;SDS011;164;50.784;6.496;2024-03-07T07:20:11;20.38;;;12.23;;
351;SDS011;164;50.784;6.496;2024-03-07T07:22:40;24.80;;;16.30;;
351;SDS011;164;50.784;6.496;2024-03-07T07:25:08;24.60;;;14.13;;
351;SDS011;164;50.784;6.496;2024-03-07T07:27:40;24.67;;;13.20;;
351;SDS011;164;50.784;6.496;2024-03-07T07:30:09;22.35;;;14.93;;
351;SDS011;164;50.784;6.496;2024-03-07T07:32:36;20.45;;;13.85;;
351;SDS011;164;50.784;6.496;2024-03-07T07:35:04;21.40;;;13.80;;
351;SDS011;164;50.784;6.496;2024-03-07T07:37:34;21.85;;;13.40;;
351;SDS011;164;50.784;6.496;2024-03-07T07:40:02;20.70;;;13.23;;
351;SDS011;164;50.784;6.496;2024-03-07T07:42:29;21.85;;;12.75;;
351;SDS011;164;50.784;6.496;2024-03-07T07:44:57;18.67;;;12.50;;
351;SDS011;164;50.784;6.496;2024-03-07T07:47:25;23.67;;;14.15;;
351;SDS011;164;50.784;6.496;2024-03-07T07:49:54;20.92;;;14.07;;
351;SDS011;164;50.784;6.496;2024-03-07T07:52:21;20.92;;;13.50;;
351;SDS011;164;50.784;6.496;2024-03-07T07:54:49;26.95;;;14.80;;
351;SDS011;164;50.784;6.496;2024-03-07T07:57:16;25.73;;;16.00;;
351;SDS011;164;50.784;6.496;2024-03-07T07:59:44;25.30;;;17.38;;
351;SDS011;164;50.784;6.496;2024-03-07T08:02:13;25.52;;;16.30;;
351;SDS011;164;50.784;6.496;2024-03-07T08:04:41;32.05;;;18.10;;
351;SDS011;164;50.784;6.496;2024-03-07T08:07:08;23.25;;;16.73;;
351;SDS011;164;50.784;6.496;2024-03-07T08:09:36;29.38;;;16.70;;
351;SDS011;164;50.784;6.496;2024-03-07T08:12:03;19.73;;;12.77;;
351;SDS011;164;50.784;6.496;2024-03-07T08:14:31;29.20;;;15.40;;
351;SDS011;164;50.784;6.496;2024-03-07T08:17:00;19.63;;;12.90;;
351;SDS011;164;50.784;6.496;2024-03-07T08:19:35;23.00;;;15.57;;
351;SDS011;164;50.784;6.496;2024-03-07T08:22:02;25.13;;;15.40;;
351;SDS011;164;50.784;6.496;2024-03-07T08:24:32;21.92;;;14.32;;
351;SDS011;164;50.784;6.496;2024-03-07T08:27:03;25.35;;;13.32;;
351;SDS011;164;50.784;6.496;2024-03-07T08:29:31;18.73;;;12.68;;
351;SDS011;164;50.784;6.496;2024-03-07T08:31:58;22.60;;;14.40;;
351;SDS011;164;50.784;6.496;2024-03-07T08:34:25;20.27;;;12.20;;
351;SDS011;164;50.784;6.496;2024-03-07T08:36:53;25.00;;;14.73;;
351;SDS011;164;50.784;6.496;2024-03-07T08:39:21;29.45;;;14.90;;
351;SDS011;164;50.784;6.496;2024-03-07T08:41:48;23.67;;;13.68;;
351;SDS011;164;50.784;6.496;2024-03-07T08:44:15;21.75;;;11.93;;
351;SDS011;164;50.784;6.496;2024-03-07T08:46:42;21.75;;;13.25;;
351;SDS011;164;50.784;6.496;2024-03-07T08:49:10;24.60;;;14.40;;
351;SDS011;164;50.784;6.496;2024-03-07T08:51:39;23.23;;;15.65;;
351;SDS011;164;50.784;6.496;2024-03-07T08:54:08;20.77;;;14.88;;
351;SDS011;164;50.784;6.496;2024-03-07T08:56:35;20.25;;;11.40;;
351;SDS011;164;50.784;6.496;2024-03-07T08:59:02;22.45;;;13.30;;
351;SDS011;164;50.784;6.496;2024-03-07T09:01:30;22.60;;;13.85;;
351;SDS011;164;50.784;6.496;2024-03-07T09:03:57;16.45;;;11.45;;
351;SDS011;164;50.784;6.496;2024-03-07T09:06:24;18.38;;;12.50;;
351;SDS011;164;50.784;6.496;2024-03-07T09:08:51;15.13;;;12.05;;
351;SDS011;164;50.784;6.496;2024-03-07T09:11:20;17.52;;;11.27;;
351;SDS011;164;50.784;6.496;2024-03-07T09:13:47;14.65;;;9.68;;
351;SDS011;164;50.784;6.496;2024-03-07T09:16:14;14.20;;;10.02;;
351;SDS011;164;50.784;6.496;2024-03-07T09:18:42;19.10;;;11.68;;
351;SDS011;164;50.784;6.496;2024-03-07T09:21:09;23.05;;;12.50;;
351;SDS011;164;50.784;6.496;2024-03-07T09:23:37;18.60;;;11.20;;
351;SDS011;164;50.784;6.496;2024-03-07T09:26:04;18.98;;;10.98;;
351;SDS011;164;50.784;6.496;2024-03-07T09:28:33;15.40;;;9.90;;
351;SDS011;164;50.784;6.496;2024-03-07T09:31:00;17.45;;;10.45;;
351;SDS011;164;50.784;6.496;2024-03-07T09:33:28;14.88;;;9.82;;
351;SDS011;164;50.784;6.496;2024-03-07T09:35:56;16.50;;;10.30;;
351;SDS011;164;50.784;6.496;2024-03-07T09:38:24;18.48;;;10.27;;
351;SDS011;164;50.784;6.496;2024-03-07T09:40:52;12.60;;;9.13;;
351;SDS011;164;50.784;6.496;2024-03-07T09:43:19;20.65;;;11.68;;
351;SDS011;164;50.784;6.496;2024-03-07T09:45:49;17.20;;;10.82;;
351;SDS011;164;50.784;6.496;2024-03-07T09:48:16;19.83;;;10.20;;
351;SDS011;164;50.784;6.496;2024-03-07T09:50:44;13.90;;;9.48;;
351;SDS011;164;50.784;6.496;2024-03-07T09:53:13;16.50;;;10.52;;
351;SDS011;164;50.784;6.496;2024-03-07T09:55:40;18.85;;;12.00;;
351;SDS011;164;50.784;6.496;2024-03-07T09:58:07;14.35;;;8.85;;
351;SDS011;164;50.784;6.496;2024-03-07T10:00:35;15.45;;;9.13;;
351;SDS011;164;50.784;6.496;2024-03-07T10:03:05;14.13;;;9.60;;
351;SDS011;164;50.784;6.496;2024-03-07T10:05:32;15.55;;;9.73;;
351;SDS011;164;50.784;6.496;2024-03-07T10:08:00;14.68;;;10.02;;
351;SDS011;164;50.784;6.496;2024-03-07T10:10:27;13.65;;;8.88;;
351;SDS011;164;50.784;6.496;2024-03-07T10:12:55;13.07;;;8.77;;
351;SDS011;164;50.784;6.496;2024-03-07T10:15:26;14.60;;;10.25;;
351;SDS011;164;50.784;6.496;2024-03-07T10:17:54;12.45;;;9.20;;
351;SDS011;164;50.784;6.496;2024-03-07T10:20:23;12.55;;;8.85;;
351;SDS011;164;50.784;6.496;2024-03-07T10:22:50;10.98;;;8.60;;
351;SDS011;164;50.784;6.496;2024-03-07T10:25:17;16.92;;;8.98;;
351;SDS011;164;50.784;6.496;2024-03-07T10:27:46;13.57;;;8.02;;
351;SDS011;164;50.784;6.496;2024-03-07T10:30:14;8.90;;;6.95;;
351;SDS011;164;50.784;6.496;2024-03-07T10:32:45;11.32;;;7.68;;
351;SDS011;164;50.784;6.496;2024-03-07T10:35:13;13.25;;;8.70;;
351;SDS011;164;50.784;6.496;2024-03-07T10:37:42;12.95;;;8.38;;
351;SDS011;164;50.784;6.496;2024-03-07T10:40:13;9.80;;;7.53;;
351;SDS011;164;50.784;6.496;2024-03-07T10:42:44;13.10;;;8.85;;
351;SDS011;164;50.784;6.496;2024-03-07T10:45:16;13.57;;;9.70;;
351;SDS011;164;50.784;6.496;2024-03-07T10:47:46;14.00;;;7.82;;
351;SDS011;164;50.784;6.496;2024-03-07T10:50:17;12.85;;;8.10;;
351;SDS011;164;50.784;6.496;2024-03-07T10:52:49;13.68;;;8.10;;
351;SDS011;164;50.784;6.496;2024-03-07T10:55:19;11.65;;;7.75;;
351;SDS011;164;50.784;6.496;2024-03-07T10:57:51;13.32;;;7.82;;
351;SDS011;164;50.784;6.496;2024-03-07T11:00:21;10.45;;;6.80;;
351;SDS011;164;50.784;6.496;2024-03-07T11:02:55;10.40;;;6.80;;
351;SDS011;164;50.784;6.496;2024-03-07T11:05:24;13.05;;;8.30;;
351;SDS011;164;50.784;6.496;2024-03-07T11:07:56;13.10;;;8.68;;
351;SDS011;164;50.784;6.496;2024-03-07T11:10:24;11.88;;;8.00;;
351;SDS011;164;50.784;6.496;2024-03-07T11:12:51;10.88;;;7.60;;
351;SDS011;164;50.784;6.496;2024-03-07T11:15:19;10.43;;;7.90;;
351;SDS011;164;50.784;6.496;2024-03-07T11:17:48;13.20;;;7.63;;
351;SDS011;164;50.784;6.496;2024-03-07T11:20:19;12.38;;;7.53;;
351;SDS011;164;50.784;6.496;2024-03-07T11:22:47;11.05;;;8.50;;
351;SDS011;164;50.784;6.496;2024-03-07T11:25:17;11.55;;;7.35;;
351;SDS011;164;50.784;6.496;2024-03-07T11:27:50;8.68;;;6.45;;
351;SDS011;164;50.784;6.496;2024-03-07T11:30:19;11.85;;;8.00;;
351;SDS011;164;50.784;6.496;2024-03-07T11:32:47;13.82;;;9.50;;
351;SDS011;164;50.784;6.496;2024-03-07T11:35:18;13.93;;;7.22;;
351;SDS011;164;50.784;6.496;2024-03-07T11:37:55;14.23;;;9.30;;
351;SDS011;164;50.784;6.496;2024-03-07T11:43:11;10.73;;;8.18;;
351;SDS011;164;50.784;6.496;2024-03-07T11:45:38;11.35;;;8.40;;
351;SDS011;164;50.784;6.496;2024-03-07T11:48:10;13.90;;;8.55;;
351;SDS011;164;50.784;6.496;2024-03-07T11:50:37;10.57;;;7.00;;
351;SDS011;164;50.784;6.496;2024-03-07T11:53:05;13.05;;;8.45;;
351;SDS011;164;50.784;6.496;2024-03-07T11:55:33;10.35;;;8.10;;
351;SDS011;164;50.784;6.496;2024-03-07T11:58:06;9.50;;;8.00;;
351;SDS011;164;50.784;6.496;2024-03-07T12:00:35;11.60;;;8.20;;
351;SDS011;164;50.784;6.496;2024-03-07T12:03:07;14.45;;;8.73;;
351;SDS011;164;50.784;6.496;2024-03-07T12:05:38;13.55;;;8.27;;
351;SDS011;164;50.784;6.496;2024-03-07T12:08:06;11.70;;;8.05;;
351;SDS011;164;50.784;6.496;2024-03-07T12:10:34;13.80;;;7.47;;
351;SDS011;164;50.784;6.496;2024-03-07T12:13:04;12.15;;;8.05;;
351;SDS011;164;50.784;6.496;2024-03-07T12:15:32;10.40;;;7.47;;
351;SDS011;164;50.784;6.496;2024-03-07T12:18:01;9.93;;;7.35;;
351;SDS011;164;50.784;6.496;2024-03-07T12:20:34;11.20;;;8.60;;
351;SDS011;164;50.784;6.496;2024-03-07T12:23:02;12.25;;;8.55;;
351;SDS011;164;50.784;6.496;2024-03-07T12:25:34;11.23;;;7.65;;
351;SDS011;164;50.784;6.496;2024-03-07T12:28:03;12.82;;;8.40;;
351;SDS011;164;50.784;6.496;2024-03-07T12:30:32;8.82;;;7.28;;
351;SDS011;164;50.784;6.496;2024-03-07T12:32:59;12.57;;;6.70;;
351;SDS011;164;50.784;6.496;2024-03-07T12:35:28;11.18;;;8.50;;
351;SDS011;164;50.784;6.496;2024-03-07T12:37:57;13.00;;;7.70;;
351;SDS011;164;50.784;6.496;2024-03-07T12:40:25;9.18;;;5.78;;
351;SDS011;164;50.784;6.496;2024-03-07T12:42:59;14.13;;;8.15;;
351;SDS011;164;50.784;6.496;2024-03-07T12:45:27;11.88;;;8.13;;
351;SDS011;164;50.784;6.496;2024-03-07T12:47:58;11.23;;;8.15;;
351;SDS011;164;50.784;6.496;2024-03-07T12:50:31;10.65;;;8.25;;
351;SDS011;164;50.784;6.496;2024-03-07T12:53:01;11.75;;;9.85;;
351;SDS011;164;50.784;6.496;2024-03-07T12:55:30;12.23;;;7.53;;
351;SDS011;164;50.784;6.496;2024-03-07T12:57:58;10.82;;;7.30;;
351;SDS011;164;50.784;6.496;2024-03-07T13:00:26;11.15;;;7.28;;
351;SDS011;164;50.784;6.496;2024-03-07T13:02:55;14.38;;;7.93;;
351;SDS011;164;50.784;6.496;2024-03-07T13:05:24;12.07;;;7.13;;
351;SDS011;164;50.784;6.496;2024-03-07T13:07:53;13.38;;;9.00;;
351;SDS011;164;50.784;6.496;2024-03-07T13:10:20;12.60;;;8.15;;
351;SDS011;164;50.784;6.496;2024-03-07T13:12:48;11.02;;;7.35;;
351;SDS011;164;50.784;6.496;2024-03-07T13:15:17;7.60;;;5.93;;
351;SDS011;164;50.784;6.496;2024-03-07T13:17:46;9.38;;;7.28;;
351;SDS011;164;50.784;6.496;2024-03-07T13:20:14;11.18;;;6.93;;
351;SDS011;164;50.784;6.496;2024-03-07T13:22:47;8.02;;;6.85;;
351;SDS011;164;50.784;6.496;2024-03-07T13:25:16;8.80;;;7.05;;
351;SDS011;164;50.784;6.496;2024-03-07T13:27:50;11.98;;;7.75;;
351;SDS011;164;50.784;6.496;2024-03-07T13:30:20;8.20;;;6.55;;
351;SDS011;164;50.784;6.496;2024-03-07T13:32:52;7.78;;;5.85;;
351;SDS011;164;50.784;6.496;2024-03-07T13:35:20;11.55;;;6.82;;
351;SDS011;164;50.784;6.496;2024-03-07T13:37:48;9.90;;;7.00;;
351;SDS011;164;50.784;6.496;2024-03-07T13:40:17;7.75;;;4.55;;
351;SDS011;164;50.784;6.496;2024-03-07T13:42:51;13.68;;;7.43;;
351;SDS011;164;50.784;6.496;2024-03-07T13:45:19;9.68;;;6.40;;
351;SDS011;164;50.784;6.496;2024-03-07T13:47:47;8.38;;;6.93;;
351;SDS011;164;50.784;6.496;2024-03-07T13:50:15;10.02;;;7.60;;
351;SDS011;164;50.784;6.496;2024-03-07T13:52:44;9.65;;;6.63;;
351;SDS011;164;50.784;6.496;2024-03-07T13:55:34;9.35;;;5.95;;
351;SDS011;164;50.784;6.496;2024-03-07T13:58:06;7.10;;;6.10;;
351;SDS011;164;50.784;6.496;2024-03-07T14:00:42;8.20;;;6.80;;
351;SDS011;164;50.784;6.496;2024-03-07T14:05:56;8.43;;;5.35;;
351;SDS011;164;50.784;6.496;2024-03-07T14:11:24;6.43;;;6.03;;
351;SDS011;164;50.784;6.496;2024-03-07T14:14:05;7.82;;;5.57;;
351;SDS011;164;50.784;6.496;2024-03-07T14:16:40;7.68;;;5.75;;
351;SDS011;164;50.784;6.496;2024-03-07T14:22:14;7.97;;;5.93;;
351;SDS011;164;50.784;6.496;2024-03-07T14:27:38;8.73;;;5.60;;
351;SDS011;164;50.784;6.496;2024-03-07T14:30:19;9.88;;;6.20;;
351;SDS011;164;50.784;6.496;2024-03-07T14:32:49;5.82;;;5.50;;
351;SDS011;164;50.784;6.496;2024-03-07T14:35:20;9.80;;;6.32;;
351;SDS011;164;50.784;6.496;2024-03-07T14:37:52;9.10;;;5.25;;
351;SDS011;164;50.784;6.496;2024-03-07T14:40:21;7.45;;;6.60;;
351;SDS011;164;50.784;6.496;2024-03-07T14:42:53;7.30;;;4.82;;
351;SDS011;164;50.784;6.496;2024-03-07T14:45:22;8.05;;;6.00;;
351;SDS011;164;50.784;6.496;2024-03-07T14:47:50;7.35;;;5.80;;
351;SDS011;164;50.784;6.496;2024-03-07T14:50:18;9.25;;;6.40;;
351;SDS011;164;50.784;6.496;2024-03-07T14:52:46;7.15;;;5.40;;
351;SDS011;164;50.784;6.496;2024-03-07T14:55:14;8.40;;;5.90;;
351;SDS011;164;50.784;6.496;2024-03-07T14:57:44;8.13;;;5.85;;
351;SDS011;164;50.784;6.496;2024-03-07T15:00:13;8.10;;;5.65;;
351;SDS011;164;50.784;6.496;2024-03-07T15:02:45;8.02;;;5.78;;
351;SDS011;164;50.784;6.496;2024-03-07T15:05:12;8.70;;;6.15;;
351;SDS011;164;50.784;6.496;2024-03-07T15:07:40;7.32;;;5.90;;
351;SDS011;164;50.784;6.496;2024-03-07T15:10:11;9.02;;;5.75;;
351;SDS011;164;50.784;6.496;2024-03-07T15:12:43;9.27;;;5.95;;
351;SDS011;164;50.784;6.496;2024-03-07T15:15:13;8.43;;;5.97;;
351;SDS011;164;50.784;6.496;2024-03-07T15:17:40;8.32;;;5.75;;
351;SDS011;164;50.784;6.496;2024-03-07T15:20:08;7.15;;;6.05;;
351;SDS011;164;50.784;6.496;2024-03-07T15:22:47;7.00;;;5.40;;
351;SDS011;164;50.784;6.496;2024-03-07T15:25:15;11.70;;;7.00;;
351;SDS011;164;50.784;6.496;2024-03-07T15:27:43;6.95;;;5.15;;
351;SDS011;164;50.784;6.496;2024-03-07T15:30:14;6.32;;;4.40;;
351;SDS011;164;50.784;6.496;2024-03-07T15:32:42;8.82;;;5.53;;
351;SDS011;164;50.784;6.496;2024-03-07T15:35:09;8.18;;;6.55;;
351;SDS011;164;50.784;6.496;2024-03-07T15:37:42;7.78;;;6.25;;
351;SDS011;164;50.784;6.496;2024-03-07T15:40:10;7.43;;;5.82;;
351;SDS011;164;50.784;6.496;2024-03-07T15:42:41;9.00;;;6.05;;
351;SDS011;164;50.784;6.496;2024-03-07T15:45:12;9.73;;;5.75;;
351;SDS011;164;50.784;6.496;2024-03-07T15:47:46;9.77;;;5.63;;
351;SDS011;164;50.784;6.496;2024-03-07T15:50:13;7.10;;;5.03;;
351;SDS011;164;50.784;6.496;2024-03-07T15:52:43;7.55;;;5.45;;
351;SDS011;164;50.784;6.496;2024-03-07T15:55:11;8.75;;;7.40;;
351;SDS011;164;50.784;6.496;2024-03-07T15:57:43;8.20;;;6.60;;
351;SDS011;164;50.784;6.496;2024-03-07T16:00:11;6.97;;;5.50;;
351;SDS011;164;50.784;6.496;2024-03-07T16:02:49;7.30;;;5.85;;
351;SDS011;164;50.784;6.496;2024-03-07T16:05:16;8.93;;;5.32;;
351;SDS011;164;50.784;6.496;2024-03-07T16:07:44;10.20;;;6.70;;
351;SDS011;164;50.784;6.496;2024-03-07T16:10:11;10.07;;;5.75;;
351;SDS011;164;50.784;6.496;2024-03-07T16:12:39;10.60;;;6.70;;